createdAt,value
2023-06-25T00:00:04.789Z,21.67
2023-06-25T00:01:04.752Z,21.60
2023-06-25T00:02:12.340Z,21.92
2023-06-25T00:03:04.786Z,21.75
2023-06-25T00:04:05.838Z,21.77
2023-06-25T00:05:04.680Z,21.70
2023-06-25T00:06:04.688Z,21.62
2023-06-25T00:07:04.701Z,21.70
2023-06-25T00:08:04.647Z,21.66
2023-06-25T00:09:04.639Z,21.66
2023-06-25T00:10:04.660Z,21.60
2023-06-25T00:11:04.639Z,21.66
2023-06-25T00:12:04.628Z,21.58
2023-06-25T00:13:04.593Z,21.50
2023-06-25T00:14:05.598Z,21.61
2023-06-25T00:15:04.639Z,21.60
2023-06-25T00:16:04.581Z,21.64
2023-06-25T00:17:04.578Z,21.58
2023-06-25T00:18:04.615Z,21.64
2023-06-25T00:19:04.540Z,21.70
2023-06-25T00:20:04.514Z,21.64
2023-06-25T00:21:04.536Z,21.64
2023-06-25T00:22:04.509Z,21.67
2023-06-25T00:23:07.487Z,21.60
2023-06-25T00:24:04.462Z,21.58
2023-06-25T00:25:04.486Z,21.66
2023-06-25T00:26:04.444Z,21.73
2023-06-25T00:27:04.434Z,21.58
2023-06-25T00:28:04.441Z,21.66
2023-06-25T00:29:04.455Z,21.62
2023-06-25T00:30:04.400Z,21.62
2023-06-25T00:31:04.498Z,21.58
2023-06-25T00:32:04.427Z,21.62
2023-06-25T00:33:04.424Z,21.60
2023-06-25T00:34:04.385Z,21.70
2023-06-25T00:35:04.350Z,21.66
2023-06-25T00:36:04.341Z,21.55
2023-06-25T00:37:04.333Z,21.51
2023-06-25T00:38:04.347Z,21.54
2023-06-25T00:39:04.319Z,21.55
2023-06-25T00:40:04.319Z,21.58
2023-06-25T00:41:04.337Z,21.43
2023-06-25T00:42:04.275Z,21.50
2023-06-25T00:43:04.645Z,21.35
2023-06-25T00:44:04.273Z,21.27
2023-06-25T00:45:04.250Z,21.33
2023-06-25T00:46:04.245Z,21.17
2023-06-25T00:47:04.212Z,21.24
2023-06-25T00:48:04.314Z,21.30
2023-06-25T00:49:04.218Z,21.30
2023-06-25T00:50:04.189Z,21.32
2023-06-25T00:51:04.178Z,21.33
2023-06-25T00:52:04.186Z,21.24
2023-06-25T00:53:04.143Z,21.25
2023-06-25T00:54:04.132Z,21.32
2023-06-25T00:55:04.145Z,21.27
2023-06-25T00:56:04.168Z,21.29
2023-06-25T00:57:04.180Z,21.29
2023-06-25T00:58:04.104Z,21.22
2023-06-25T00:59:05.057Z,21.25
2023-06-25T01:00:04.065Z,21.25
2023-06-25T01:01:04.133Z,21.30
2023-06-25T01:02:04.082Z,21.24
2023-06-25T01:03:04.130Z,21.22
2023-06-25T01:04:04.106Z,21.36
2023-06-25T01:05:04.036Z,21.33
2023-06-25T01:06:12.215Z,21.42
2023-06-25T01:07:05.052Z,21.35
2023-06-25T01:08:03.992Z,21.35
2023-06-25T01:09:04.012Z,21.37
2023-06-25T01:10:03.972Z,21.37
2023-06-25T01:11:03.967Z,21.42
2023-06-25T01:12:03.960Z,21.42
2023-06-25T01:13:03.929Z,21.40
2023-06-25T01:14:03.961Z,21.39
2023-06-25T01:15:03.909Z,21.50
2023-06-25T01:16:03.906Z,21.37
2023-06-25T01:17:03.881Z,21.51
2023-06-25T01:18:03.892Z,21.37
2023-06-25T01:19:05.489Z,21.46
2023-06-25T01:20:03.892Z,21.50
2023-06-25T01:21:03.874Z,21.45
2023-06-25T01:22:03.838Z,21.48
2023-06-25T01:23:03.824Z,21.46
2023-06-25T01:24:03.839Z,21.37
2023-06-25T01:25:03.840Z,21.50
2023-06-25T01:26:03.814Z,21.48
2023-06-25T01:27:03.772Z,21.52
2023-06-25T01:28:03.759Z,21.45
2023-06-25T01:29:03.783Z,21.39
2023-06-25T01:30:03.771Z,21.42
2023-06-25T01:31:03.737Z,21.43
2023-06-25T01:32:03.956Z,21.36
2023-06-25T01:33:03.756Z,21.40
2023-06-25T01:34:03.713Z,21.36
2023-06-25T01:35:03.764Z,21.37
2023-06-25T01:36:03.690Z,21.37
2023-06-25T01:37:03.699Z,21.36
2023-06-25T01:38:03.650Z,21.30
2023-06-25T01:39:03.652Z,21.25
2023-06-25T01:40:03.663Z,21.22
2023-06-25T01:41:03.664Z,21.15
2023-06-25T01:42:03.603Z,21.15
2023-06-25T01:43:03.640Z,21.15
2023-06-25T01:44:03.577Z,21.17
2023-06-25T01:45:03.596Z,21.18
2023-06-25T01:46:03.579Z,21.18
2023-06-25T01:47:03.572Z,21.20
2023-06-25T01:48:04.641Z,21.22
2023-06-25T01:49:03.550Z,21.17
2023-06-25T01:50:03.517Z,21.17
2023-06-25T01:51:03.506Z,21.15
2023-06-25T01:52:03.531Z,21.17
2023-06-25T01:53:03.477Z,21.17
2023-06-25T01:54:03.523Z,21.12
2023-06-25T01:55:03.480Z,21.15
2023-06-25T01:56:03.453Z,21.12
2023-06-25T01:57:04.453Z,21.24
2023-06-25T01:58:03.428Z,21.15
2023-06-25T01:59:03.409Z,21.14
2023-06-25T02:00:03.480Z,21.14
2023-06-25T02:01:03.554Z,21.18
2023-06-25T02:02:03.379Z,21.15
2023-06-25T02:03:03.432Z,21.00
2023-06-25T02:04:03.362Z,21.05
2023-06-25T02:05:03.379Z,21.05
2023-06-25T02:06:03.370Z,21.06
2023-06-25T02:07:03.349Z,21.07
2023-06-25T02:08:03.373Z,20.87
2023-06-25T02:09:03.310Z,20.84
2023-06-25T02:10:03.337Z,20.82
2023-06-25T02:11:03.287Z,20.85
2023-06-25T02:12:03.326Z,20.84
2023-06-25T02:13:03.279Z,20.77
2023-06-25T02:14:03.250Z,20.70
2023-06-25T02:15:03.264Z,20.72
2023-06-25T02:16:03.263Z,20.75
2023-06-25T02:17:03.243Z,20.77
2023-06-25T02:18:03.254Z,20.82
2023-06-25T02:19:03.187Z,20.85
2023-06-25T02:20:03.187Z,20.75
2023-06-25T02:21:03.198Z,20.87
2023-06-25T02:22:03.160Z,20.85
2023-06-25T02:23:03.211Z,20.85
2023-06-25T02:24:04.188Z,20.87
2023-06-25T02:25:03.172Z,20.84
2023-06-25T02:26:03.110Z,20.80
2023-06-25T02:27:03.108Z,20.90
2023-06-25T02:28:03.103Z,20.87
2023-06-25T02:29:03.110Z,20.78
2023-06-25T02:30:03.076Z,20.82
2023-06-25T02:31:03.116Z,20.90
2023-06-25T02:32:03.063Z,20.81
2023-06-25T02:33:04.126Z,20.81
2023-06-25T02:34:03.037Z,20.81
2023-06-25T02:35:03.045Z,20.74
2023-06-25T02:36:03.074Z,20.77
2023-06-25T02:37:02.997Z,20.69
2023-06-25T02:38:03.051Z,20.67
2023-06-25T02:39:03.022Z,20.67
2023-06-25T02:40:03.056Z,20.70
2023-06-25T02:41:02.979Z,20.75
2023-06-25T02:42:02.937Z,20.70
2023-06-25T02:43:02.952Z,20.67
2023-06-25T02:44:02.941Z,20.69
2023-06-25T02:45:02.909Z,20.74
2023-06-25T02:46:02.910Z,20.69
2023-06-25T02:47:02.998Z,20.72
2023-06-25T02:48:02.949Z,20.63
2023-06-25T02:49:02.890Z,20.67
2023-06-25T02:50:02.914Z,20.58
2023-06-25T02:51:02.868Z,20.59
2023-06-25T02:52:02.862Z,20.55
2023-06-25T02:53:02.819Z,20.58
2023-06-25T02:54:02.814Z,20.63
2023-06-25T02:55:02.835Z,20.66
2023-06-25T02:56:02.815Z,20.66
2023-06-25T02:57:02.779Z,20.67
2023-06-25T02:58:02.788Z,20.69
2023-06-25T02:59:02.762Z,20.75
2023-06-25T03:00:02.749Z,20.66
2023-06-25T03:01:02.822Z,20.74
2023-06-25T03:02:02.776Z,20.69
2023-06-25T03:03:02.837Z,20.70
2023-06-25T03:04:02.708Z,20.65
2023-06-25T03:05:02.735Z,20.66
2023-06-25T03:06:02.706Z,20.65
2023-06-25T03:07:02.708Z,20.63
2023-06-25T03:08:02.649Z,20.62
2023-06-25T03:09:02.660Z,20.59
2023-06-25T03:10:02.632Z,20.59
2023-06-25T03:11:02.632Z,20.66
2023-06-25T03:12:02.648Z,20.69
2023-06-25T03:13:02.631Z,20.65
2023-06-25T03:14:03.622Z,20.69
2023-06-25T03:15:02.614Z,20.69
2023-06-25T03:16:02.588Z,20.67
2023-06-25T03:17:02.622Z,20.66
2023-06-25T03:18:02.601Z,20.67
2023-06-25T03:19:02.542Z,20.65
2023-06-25T03:20:02.546Z,20.67
2023-06-25T03:21:02.552Z,20.69
2023-06-25T03:22:02.506Z,20.74
2023-06-25T03:23:02.493Z,20.74
2023-06-25T03:24:02.499Z,20.74
2023-06-25T03:25:02.492Z,20.82
2023-06-25T03:26:02.487Z,20.77
2023-06-25T03:27:02.473Z,20.80
2023-06-25T03:28:03.454Z,20.82
2023-06-25T03:29:02.455Z,20.90
2023-06-25T03:30:02.423Z,20.82
2023-06-25T03:31:02.448Z,20.80
2023-06-25T03:32:02.433Z,20.81
2023-06-25T03:33:02.436Z,20.87
2023-06-25T03:34:02.372Z,20.77
2023-06-25T03:35:02.353Z,20.84
2023-06-25T03:36:02.361Z,20.93
2023-06-25T03:37:02.337Z,20.87
2023-06-25T03:38:02.378Z,20.96
2023-06-25T03:39:02.314Z,20.95
2023-06-25T03:40:02.301Z,20.93
2023-06-25T03:41:02.290Z,20.96
2023-06-25T03:42:02.310Z,21.06
2023-06-25T03:43:02.272Z,21.06
2023-06-25T03:44:02.332Z,21.05
2023-06-25T03:45:02.269Z,21.06
2023-06-25T03:46:02.242Z,21.11
2023-06-25T03:47:02.238Z,21.06
2023-06-25T03:48:02.301Z,21.06
2023-06-25T03:49:02.220Z,21.14
2023-06-25T03:50:02.222Z,21.17
2023-06-25T03:51:02.176Z,21.21
2023-06-25T03:52:02.187Z,21.18
2023-06-25T03:53:02.171Z,21.15
2023-06-25T03:54:02.190Z,21.15
2023-06-25T03:55:02.152Z,21.17
2023-06-25T03:56:02.157Z,21.20
2023-06-25T03:57:02.112Z,21.24
2023-06-25T03:58:02.103Z,21.15
2023-06-25T03:59:02.113Z,21.15
2023-06-25T04:00:02.131Z,21.15
2023-06-25T04:01:02.110Z,21.17
2023-06-25T04:02:02.173Z,21.24
2023-06-25T04:03:02.104Z,21.20
2023-06-25T04:04:02.102Z,21.22
2023-06-25T04:05:02.041Z,21.18
2023-06-25T04:06:02.037Z,21.15
2023-06-25T04:07:02.116Z,21.12
2023-06-25T04:08:02.043Z,21.11
2023-06-25T04:09:01.991Z,21.09
2023-06-25T04:10:02.018Z,21.03
2023-06-25T04:11:01.962Z,21.14
2023-06-25T04:12:01.992Z,21.14
2023-06-25T04:13:01.987Z,21.21
2023-06-25T04:14:01.945Z,21.12
2023-06-25T04:15:01.962Z,21.24
2023-06-25T04:16:01.944Z,21.15
2023-06-25T04:17:01.933Z,21.15
2023-06-25T04:18:01.952Z,21.15
2023-06-25T04:19:01.876Z,21.18
2023-06-25T04:20:01.866Z,21.29
2023-06-25T04:21:01.861Z,21.32
2023-06-25T04:22:01.860Z,21.45
2023-06-25T04:23:01.871Z,21.40
2023-06-25T04:24:01.844Z,21.52
2023-06-25T04:25:01.872Z,21.55
2023-06-25T04:26:01.797Z,21.58
2023-06-25T04:27:01.811Z,21.64
2023-06-25T04:28:01.868Z,21.61
2023-06-25T04:29:01.770Z,21.62
2023-06-25T04:30:01.789Z,21.62
2023-06-25T04:31:01.744Z,21.61
2023-06-25T04:32:01.999Z,21.66
2023-06-25T04:33:01.753Z,21.75
2023-06-25T04:34:01.752Z,21.72
2023-06-25T04:35:01.721Z,21.79
2023-06-25T04:36:01.699Z,21.89
2023-06-25T04:37:02.681Z,21.95
2023-06-25T04:38:01.733Z,21.98
2023-06-25T04:39:01.666Z,22.00
2023-06-25T04:40:01.644Z,22.10
2023-06-25T04:41:01.685Z,22.11
2023-06-25T04:42:01.678Z,22.22
2023-06-25T04:43:01.666Z,22.25
2023-06-25T04:44:01.627Z,22.23
2023-06-25T04:45:01.646Z,22.28
2023-06-25T04:46:01.622Z,22.32
2023-06-25T04:47:01.623Z,22.43
2023-06-25T04:48:01.592Z,22.36
2023-06-25T04:49:01.553Z,22.48
2023-06-25T04:50:01.546Z,22.50
2023-06-25T04:51:02.027Z,22.47
2023-06-25T04:52:01.540Z,22.65
2023-06-25T04:53:01.538Z,22.62
2023-06-25T04:54:01.538Z,22.70
2023-06-25T04:55:01.477Z,22.69
2023-06-25T04:56:01.484Z,22.78
2023-06-25T04:57:01.468Z,22.83
2023-06-25T04:58:01.463Z,22.90
2023-06-25T04:59:01.466Z,22.91
2023-06-25T05:00:01.442Z,22.91
2023-06-25T05:01:01.433Z,22.93
2023-06-25T05:02:01.406Z,22.87
2023-06-25T05:03:01.427Z,22.96
2023-06-25T05:04:01.415Z,22.98
2023-06-25T05:05:01.420Z,23.06
2023-06-25T05:06:01.367Z,23.08
2023-06-25T05:07:01.410Z,23.13
2023-06-25T05:08:01.336Z,23.13
2023-06-25T05:09:01.330Z,23.31
2023-06-25T05:10:01.366Z,23.25
2023-06-25T05:11:02.460Z,23.37
2023-06-25T05:12:01.286Z,23.34
2023-06-25T05:13:01.283Z,23.36
2023-06-25T05:14:01.307Z,23.43
2023-06-25T05:15:01.260Z,23.43
2023-06-25T05:16:01.271Z,23.46
2023-06-25T05:17:01.235Z,23.44
2023-06-25T05:18:01.240Z,23.50
2023-06-25T05:19:01.214Z,23.62
2023-06-25T05:20:01.511Z,23.65
2023-06-25T05:21:01.207Z,23.56
2023-06-25T05:22:01.192Z,23.63
2023-06-25T05:23:01.172Z,23.66
2023-06-25T05:24:01.174Z,23.77
2023-06-25T05:25:01.194Z,23.76
2023-06-25T05:26:01.130Z,23.78
2023-06-25T05:27:01.142Z,23.77
2023-06-25T05:28:01.111Z,23.86
2023-06-25T05:29:01.139Z,23.76
2023-06-25T05:30:01.087Z,23.71
2023-06-25T05:31:01.095Z,23.87
2023-06-25T05:32:01.068Z,23.81
2023-06-25T05:33:01.161Z,23.84
2023-06-25T05:34:01.071Z,23.92
2023-06-25T05:35:01.082Z,23.98
2023-06-25T05:36:01.041Z,24.01
2023-06-25T05:37:01.027Z,24.11
2023-06-25T05:38:01.011Z,24.03
2023-06-25T05:39:01.016Z,24.21
2023-06-25T05:40:00.988Z,24.32
2023-06-25T05:41:00.988Z,24.36
2023-06-25T05:42:00.969Z,24.29
2023-06-25T05:43:00.969Z,24.36
2023-06-25T05:44:00.974Z,24.42
2023-06-25T05:45:00.938Z,24.45
2023-06-25T05:46:00.911Z,24.53
2023-06-25T05:47:00.952Z,24.58
2023-06-25T05:48:00.970Z,24.63
2023-06-25T05:49:00.914Z,24.63
2023-06-25T05:50:00.869Z,24.66
2023-06-25T05:51:00.904Z,24.60
2023-06-25T05:52:00.870Z,24.61
2023-06-25T05:53:00.854Z,24.76
2023-06-25T05:54:00.825Z,24.81
2023-06-25T05:55:00.822Z,24.74
2023-06-25T05:56:00.810Z,24.77
2023-06-25T05:57:00.801Z,24.76
2023-06-25T05:58:00.800Z,24.81
2023-06-25T05:59:00.773Z,24.95
2023-06-25T06:00:00.787Z,24.89
2023-06-25T06:01:00.776Z,24.93
2023-06-25T06:02:00.750Z,24.86
2023-06-25T06:03:00.860Z,24.96
2023-06-25T06:04:00.865Z,25.03
2023-06-25T06:05:00.739Z,25.01
2023-06-25T06:06:00.688Z,25.07
2023-06-25T06:07:00.731Z,25.08
2023-06-25T06:08:00.688Z,25.17
2023-06-25T06:09:00.657Z,25.18
2023-06-25T06:10:00.668Z,25.22
2023-06-25T06:11:00.642Z,25.25
2023-06-25T06:12:00.625Z,25.21
2023-06-25T06:13:00.629Z,25.32
2023-06-25T06:14:00.628Z,25.40
2023-06-25T06:15:00.588Z,25.36
2023-06-25T06:16:00.606Z,25.48
2023-06-25T06:17:00.604Z,25.44
2023-06-25T06:18:00.588Z,25.46
2023-06-25T06:19:00.552Z,25.46
2023-06-25T06:20:00.550Z,25.54
2023-06-25T06:21:00.577Z,25.62
2023-06-25T06:22:00.516Z,25.68
2023-06-25T06:23:00.525Z,25.66
2023-06-25T06:24:00.510Z,25.77
2023-06-25T06:25:00.498Z,25.69
2023-06-25T06:26:00.512Z,25.78
2023-06-25T06:27:00.489Z,25.84
2023-06-25T06:28:00.478Z,25.83
2023-06-25T06:29:00.453Z,25.78
2023-06-25T06:30:00.434Z,25.73
2023-06-25T06:31:00.484Z,25.84
2023-06-25T06:32:00.423Z,25.78
2023-06-25T06:33:00.439Z,25.85
2023-06-25T06:34:00.416Z,25.90
2023-06-25T06:35:00.398Z,25.88
2023-06-25T06:36:00.378Z,25.90
2023-06-25T06:37:00.375Z,25.98
2023-06-25T06:38:00.356Z,26.02
2023-06-25T06:39:00.349Z,26.15
2023-06-25T06:40:00.386Z,26.10
2023-06-25T06:41:00.324Z,26.19
2023-06-25T06:42:00.329Z,26.21
2023-06-25T06:43:00.316Z,26.21
2023-06-25T06:44:00.332Z,26.21
2023-06-25T06:45:00.275Z,26.34
2023-06-25T06:46:00.266Z,26.16
2023-06-25T06:47:00.250Z,26.33
2023-06-25T06:48:00.289Z,26.40
2023-06-25T06:49:00.231Z,26.43
2023-06-25T06:50:00.271Z,26.45
2023-06-25T06:51:00.213Z,26.52
2023-06-25T06:52:01.253Z,26.56
2023-06-25T06:53:00.244Z,26.58
2023-06-25T06:54:00.194Z,26.71
2023-06-25T06:55:00.199Z,26.75
2023-06-25T06:56:00.190Z,26.73
2023-06-25T06:57:00.165Z,26.74
2023-06-25T06:58:00.166Z,26.73
2023-06-25T06:59:00.124Z,26.73
2023-06-25T07:00:00.160Z,26.68
2023-06-25T07:01:00.147Z,26.81
2023-06-25T07:02:00.176Z,26.84
2023-06-25T07:03:00.131Z,26.83
2023-06-25T07:04:00.132Z,26.96
2023-06-25T07:05:00.154Z,26.96
2023-06-25T07:06:00.180Z,27.03
2023-06-25T07:07:00.053Z,27.14
2023-06-25T07:08:00.041Z,27.14
2023-06-25T07:09:00.008Z,27.14
2023-06-25T07:10:00.050Z,27.11
2023-06-25T07:11:00.002Z,27.10
2023-06-25T07:11:59.990Z,27.15
2023-06-25T07:13:00.034Z,27.18
2023-06-25T07:13:59.959Z,27.17
2023-06-25T07:14:59.973Z,27.17
2023-06-25T07:15:59.932Z,27.18
2023-06-25T07:16:59.938Z,27.25
2023-06-25T07:17:59.978Z,27.21
2023-06-25T07:18:59.897Z,27.27
2023-06-25T07:19:59.885Z,27.35
2023-06-25T07:20:59.880Z,27.27
2023-06-25T07:21:59.913Z,27.30
2023-06-25T07:22:59.865Z,27.36
2023-06-25T07:23:59.846Z,27.45
2023-06-25T07:24:59.845Z,27.42
2023-06-25T07:25:59.826Z,27.48
2023-06-25T07:26:59.825Z,27.59
2023-06-25T07:27:59.857Z,27.59
2023-06-25T07:28:59.805Z,27.70
2023-06-25T07:29:59.807Z,27.63
2023-06-25T07:30:59.824Z,27.67
2023-06-25T07:31:59.799Z,27.75
2023-06-25T07:32:59.784Z,27.65
2023-06-25T07:33:59.747Z,27.58
2023-06-25T07:34:59.740Z,27.64
2023-06-25T07:35:59.717Z,27.64
2023-06-25T07:36:59.702Z,27.68
2023-06-25T07:37:59.695Z,27.59
2023-06-25T07:38:59.721Z,27.65
2023-06-25T07:39:59.689Z,27.71
2023-06-25T07:40:59.676Z,27.68
2023-06-25T07:41:59.643Z,27.77
2023-06-25T07:42:59.637Z,27.77
2023-06-25T07:43:59.646Z,27.77
2023-06-25T07:44:59.651Z,27.78
2023-06-25T07:45:59.669Z,27.83
2023-06-25T07:46:59.627Z,27.92
2023-06-25T07:47:59.606Z,27.98
2023-06-25T07:48:59.600Z,27.96
2023-06-25T07:49:59.571Z,27.96
2023-06-25T07:50:59.555Z,27.68
2023-06-25T07:51:59.601Z,27.60
2023-06-25T07:52:59.569Z,27.54
2023-06-25T07:53:59.515Z,27.55
2023-06-25T07:55:00.399Z,27.68
2023-06-25T07:56:03.569Z,27.71
2023-06-25T07:56:59.497Z,27.86
2023-06-25T07:57:59.483Z,27.96
2023-06-25T07:58:59.456Z,27.96
2023-06-25T07:59:59.465Z,28.04
2023-06-25T08:00:59.453Z,28.12
2023-06-25T08:01:59.917Z,28.20
2023-06-25T08:02:59.578Z,28.19
2023-06-25T08:03:59.609Z,27.96
2023-06-25T08:04:59.529Z,27.95
2023-06-25T08:05:59.385Z,28.04
2023-06-25T08:06:59.427Z,28.15
2023-06-25T08:07:59.364Z,28.15
2023-06-25T08:08:59.369Z,28.17
2023-06-25T08:10:00.199Z,28.26
2023-06-25T08:10:59.373Z,28.01
2023-06-25T08:11:59.324Z,27.90
2023-06-25T08:12:59.314Z,28.04
2023-06-25T08:13:59.326Z,27.98
2023-06-25T08:14:59.303Z,27.74
2023-06-25T08:15:59.299Z,27.74
2023-06-25T08:16:59.281Z,27.80
2023-06-25T08:17:59.301Z,27.93
2023-06-25T08:18:59.266Z,27.92
2023-06-25T08:19:59.238Z,27.96
2023-06-25T08:20:59.230Z,27.89
2023-06-25T08:21:59.212Z,27.89
2023-06-25T08:22:59.226Z,27.96
2023-06-25T08:23:59.273Z,28.04
2023-06-25T08:24:59.189Z,28.29
2023-06-25T08:25:59.187Z,28.30
2023-06-25T08:26:59.170Z,28.42
2023-06-25T08:27:59.153Z,28.47
2023-06-25T08:28:59.153Z,28.54
2023-06-25T08:29:59.152Z,28.64
2023-06-25T08:30:59.125Z,28.74
2023-06-25T08:31:59.132Z,28.70
2023-06-25T08:32:59.120Z,28.66
2023-06-25T08:33:59.096Z,28.76
2023-06-25T08:34:59.100Z,28.81
2023-06-25T08:35:59.085Z,28.72
2023-06-25T08:36:59.045Z,28.89
2023-06-25T08:37:59.050Z,28.89
2023-06-25T08:38:59.022Z,28.96
2023-06-25T08:39:59.034Z,29.02
2023-06-25T08:40:59.414Z,29.04
2023-06-25T08:41:59.000Z,29.12
2023-06-25T08:42:59.001Z,29.24
2023-06-25T08:43:58.988Z,29.01
2023-06-25T08:44:58.956Z,28.89
2023-06-25T08:45:58.950Z,28.98
2023-06-25T08:46:59.078Z,29.20
2023-06-25T08:47:59.051Z,29.26
2023-06-25T08:48:58.921Z,29.23
2023-06-25T08:49:58.914Z,29.12
2023-06-25T08:50:58.889Z,29.07
2023-06-25T08:51:58.882Z,29.08
2023-06-25T08:52:58.866Z,29.19
2023-06-25T08:53:58.922Z,29.22
2023-06-25T08:54:58.873Z,29.32
2023-06-25T08:55:58.871Z,29.38
2023-06-25T08:56:58.822Z,29.39
2023-06-25T08:57:58.810Z,29.47
2023-06-25T08:58:58.807Z,29.53
2023-06-25T08:59:58.824Z,29.53
2023-06-25T09:00:58.817Z,29.50
2023-06-25T09:01:58.863Z,29.45
2023-06-25T09:02:58.940Z,29.31
2023-06-25T09:03:58.774Z,29.44
2023-06-25T09:04:58.741Z,29.51
2023-06-25T09:05:58.765Z,29.49
2023-06-25T09:07:04.701Z,29.60
2023-06-25T09:07:59.902Z,29.61
2023-06-25T09:08:58.693Z,29.72
2023-06-25T09:09:58.712Z,29.71
2023-06-25T09:10:58.682Z,29.63
2023-06-25T09:11:58.663Z,29.50
2023-06-25T09:12:58.666Z,29.53
2023-06-25T09:13:58.678Z,29.54
2023-06-25T09:14:58.636Z,29.68
2023-06-25T09:15:58.642Z,29.60
2023-06-25T09:16:58.627Z,29.66
2023-06-25T09:17:58.650Z,29.65
2023-06-25T09:18:58.625Z,29.49
2023-06-25T09:19:58.595Z,29.22
2023-06-25T09:20:58.592Z,29.19
2023-06-25T09:21:58.552Z,29.13
2023-06-25T09:22:58.537Z,29.13
2023-06-25T09:23:58.543Z,29.17
2023-06-25T09:24:58.515Z,29.10
2023-06-25T09:25:58.525Z,29.12
2023-06-25T09:26:58.909Z,29.01
2023-06-25T09:27:58.885Z,28.75
2023-06-25T09:28:58.478Z,28.74
2023-06-25T09:29:58.484Z,28.75
2023-06-25T09:30:58.490Z,28.74
2023-06-25T09:31:58.443Z,28.59
2023-06-25T09:32:58.613Z,28.74
2023-06-25T09:33:58.435Z,28.76
2023-06-25T09:34:58.410Z,28.76
2023-06-25T09:35:58.428Z,28.63
2023-06-25T09:36:58.394Z,28.72
2023-06-25T09:37:58.392Z,28.42
2023-06-25T09:38:58.366Z,28.45
2023-06-25T09:39:58.364Z,28.49
2023-06-25T09:40:58.349Z,28.60
2023-06-25T09:41:58.347Z,28.64
2023-06-25T09:42:58.334Z,28.74
2023-06-25T09:43:58.333Z,28.70
2023-06-25T09:44:58.300Z,28.84
2023-06-25T09:45:58.346Z,28.82
2023-06-25T09:46:58.297Z,28.94
2023-06-25T09:47:58.309Z,28.97
2023-06-25T09:48:58.286Z,29.05
2023-06-25T09:49:58.267Z,29.04
2023-06-25T09:50:58.234Z,28.96
2023-06-25T09:51:58.248Z,29.12
2023-06-25T09:52:58.248Z,29.12
2023-06-25T09:53:58.203Z,29.23
2023-06-25T09:54:58.224Z,29.19
2023-06-25T09:55:58.181Z,29.02
2023-06-25T09:56:58.173Z,29.12
2023-06-25T09:57:58.196Z,29.13
2023-06-25T09:58:58.162Z,29.17
2023-06-25T09:59:58.163Z,29.12
2023-06-25T10:00:58.880Z,29.22
2023-06-25T10:01:58.270Z,29.24
2023-06-25T10:03:05.921Z,29.63
2023-06-25T10:03:58.197Z,29.47
2023-06-25T10:04:58.092Z,29.65
2023-06-25T10:05:58.105Z,29.47
2023-06-25T10:06:58.092Z,29.60
2023-06-25T10:07:58.670Z,29.61
2023-06-25T10:08:58.066Z,29.63
2023-06-25T10:09:58.041Z,29.73
2023-06-25T10:10:58.067Z,29.82
2023-06-25T10:11:58.016Z,29.91
2023-06-25T10:12:57.995Z,30.03
2023-06-25T10:13:57.984Z,30.12
2023-06-25T10:14:58.003Z,30.23
2023-06-25T10:15:58.014Z,30.24
2023-06-25T10:16:58.067Z,30.46
2023-06-25T10:17:58.038Z,30.53
2023-06-25T10:18:57.962Z,30.59
2023-06-25T10:19:57.936Z,30.59
2023-06-25T10:20:57.919Z,30.73
2023-06-25T10:21:57.925Z,30.68
2023-06-25T10:22:57.912Z,30.72
2023-06-25T10:23:57.902Z,30.81
2023-06-25T10:24:58.403Z,30.91
2023-06-25T10:25:57.944Z,30.97
2023-06-25T10:26:57.883Z,30.87
2023-06-25T10:27:58.864Z,31.02
2023-06-25T10:28:57.821Z,31.07
2023-06-25T10:29:57.817Z,31.22
2023-06-25T10:30:57.997Z,31.24
2023-06-25T10:31:57.881Z,31.33
2023-06-25T10:32:58.427Z,31.40
2023-06-25T10:33:57.804Z,31.17
2023-06-25T10:34:57.792Z,31.17
2023-06-25T10:35:57.766Z,31.25
2023-06-25T10:36:57.753Z,31.14
2023-06-25T10:37:57.763Z,31.18
2023-06-25T10:38:57.737Z,31.10
2023-06-25T10:39:57.720Z,30.91
2023-06-25T10:40:57.694Z,30.90
2023-06-25T10:41:57.692Z,30.68
2023-06-25T10:42:57.691Z,30.59
2023-06-25T10:43:57.935Z,30.53
2023-06-25T10:44:57.664Z,30.50
2023-06-25T10:45:58.641Z,30.53
2023-06-25T10:46:57.681Z,30.48
2023-06-25T10:47:58.718Z,30.53
2023-06-25T10:48:57.619Z,30.53
2023-06-25T10:49:57.667Z,30.34
2023-06-25T10:50:57.622Z,30.35
2023-06-25T10:51:57.571Z,30.31
2023-06-25T10:52:57.622Z,30.31
2023-06-25T10:53:57.628Z,30.27
2023-06-25T10:54:57.554Z,30.31
2023-06-25T10:55:57.591Z,30.25
2023-06-25T10:56:57.895Z,30.25
2023-06-25T10:57:57.540Z,30.31
2023-06-25T10:58:57.509Z,30.39
2023-06-25T10:59:57.540Z,30.25
2023-06-25T11:00:57.588Z,30.32
2023-06-25T11:01:57.513Z,30.39
2023-06-25T11:02:57.525Z,30.47
2023-06-25T11:03:58.503Z,30.32
2023-06-25T11:04:57.456Z,30.44
2023-06-25T11:05:57.422Z,30.30
2023-06-25T11:06:57.458Z,30.32
2023-06-25T11:07:57.503Z,30.28
2023-06-25T11:08:57.425Z,30.24
2023-06-25T11:09:57.432Z,30.06
2023-06-25T11:10:57.421Z,30.08
2023-06-25T11:11:57.378Z,30.19
2023-06-25T11:12:57.379Z,30.21
2023-06-25T11:13:57.345Z,30.30
2023-06-25T11:14:59.625Z,30.31
2023-06-25T11:15:57.320Z,30.28
2023-06-25T11:16:57.359Z,30.32
2023-06-25T11:17:57.335Z,30.55
2023-06-25T11:18:57.278Z,30.70
2023-06-25T11:19:57.285Z,30.73
2023-06-25T11:20:57.310Z,30.88
2023-06-25T11:21:57.238Z,31.03
2023-06-25T11:22:57.239Z,31.18
2023-06-25T11:23:57.220Z,31.24
2023-06-25T11:24:57.241Z,31.34
2023-06-25T11:25:57.326Z,31.39
2023-06-25T11:26:57.246Z,31.65
2023-06-25T11:27:57.200Z,31.64
2023-06-25T11:28:57.170Z,31.59
2023-06-25T11:29:57.189Z,31.69
2023-06-25T11:30:57.176Z,31.58
2023-06-25T11:31:57.154Z,31.66
2023-06-25T11:32:57.158Z,31.76
2023-06-25T11:33:58.113Z,31.64
2023-06-25T11:34:57.131Z,31.49
2023-06-25T11:35:57.116Z,31.42
2023-06-25T11:36:57.082Z,31.25
2023-06-25T11:37:57.086Z,31.09
2023-06-25T11:38:57.087Z,31.06
2023-06-25T11:39:57.053Z,31.15
2023-06-25T11:40:57.052Z,31.17
2023-06-25T11:41:57.055Z,31.27
2023-06-25T11:42:57.375Z,31.17
2023-06-25T11:43:57.058Z,31.18
2023-06-25T11:44:56.990Z,31.31
2023-06-25T11:45:56.988Z,31.18
2023-06-25T11:46:56.974Z,31.22
2023-06-25T11:47:57.087Z,31.40
2023-06-25T11:48:56.965Z,31.44
2023-06-25T11:49:56.975Z,31.31
2023-06-25T11:50:56.934Z,31.20
2023-06-25T11:51:56.940Z,31.22
2023-06-25T11:52:56.954Z,31.27
2023-06-25T11:53:56.899Z,31.20
2023-06-25T11:54:56.918Z,31.27
2023-06-25T11:55:56.904Z,31.27
2023-06-25T11:56:56.879Z,31.39
2023-06-25T11:57:56.883Z,31.10
2023-06-25T11:58:56.863Z,31.14
2023-06-25T11:59:56.848Z,31.07
2023-06-25T12:00:56.854Z,31.00
2023-06-25T12:01:56.878Z,31.05
2023-06-25T12:02:56.855Z,31.05
2023-06-25T12:03:56.910Z,30.99
2023-06-25T12:04:56.800Z,30.92
2023-06-25T12:05:58.971Z,30.99
2023-06-25T12:06:56.802Z,30.96
2023-06-25T12:07:56.750Z,30.75
2023-06-25T12:08:57.873Z,30.72
2023-06-25T12:09:56.722Z,30.75
2023-06-25T12:10:56.714Z,30.55
2023-06-25T12:11:56.719Z,30.72
2023-06-25T12:12:56.722Z,30.65
2023-06-25T12:13:56.727Z,30.63
2023-06-25T12:14:56.685Z,30.62
2023-06-25T12:15:56.677Z,30.65
2023-06-25T12:16:56.667Z,30.57
2023-06-25T12:17:56.710Z,30.62
2023-06-25T12:18:56.648Z,30.57
2023-06-25T12:19:56.649Z,30.54
2023-06-25T12:20:56.600Z,30.51
2023-06-25T12:21:56.591Z,30.51
2023-06-25T12:22:56.594Z,30.48
2023-06-25T12:23:56.584Z,30.54
2023-06-25T12:24:56.560Z,30.61
2023-06-25T12:25:56.607Z,30.54
2023-06-25T12:26:56.536Z,30.43
2023-06-25T12:27:56.557Z,30.40
2023-06-25T12:28:56.516Z,30.57
2023-06-25T12:29:56.533Z,30.54
2023-06-25T12:30:56.492Z,30.62
2023-06-25T12:31:56.575Z,30.75
2023-06-25T12:32:57.069Z,30.70
2023-06-25T12:33:56.486Z,30.77
2023-06-25T12:34:56.480Z,30.94
2023-06-25T12:35:56.903Z,30.97
2023-06-25T12:36:56.432Z,31.05
2023-06-25T12:37:56.488Z,31.20
2023-06-25T12:38:56.444Z,31.17
2023-06-25T12:39:56.438Z,31.25
2023-06-25T12:40:56.411Z,31.20
2023-06-25T12:41:57.337Z,31.24
2023-06-25T12:42:56.365Z,31.29
2023-06-25T12:43:56.364Z,31.43
2023-06-25T12:44:56.362Z,31.49
2023-06-25T12:45:56.351Z,31.54
2023-06-25T12:46:56.366Z,31.59
2023-06-25T12:47:56.433Z,31.54
2023-06-25T12:48:56.309Z,31.43
2023-06-25T12:49:56.322Z,31.20
2023-06-25T12:50:56.352Z,31.20
2023-06-25T12:51:56.278Z,31.06